createdAt,value
2015-11-01T22:15:22.701Z,1023.34
2015-11-01T22:15:32.451Z,1023.31
2015-11-01T22:15:42.466Z,1023.34
2015-11-01T22:15:52.468Z,1023.32
2015-11-01T22:16:02.468Z,1023.33
2015-11-01T22:16:12.468Z,1023.32
2015-11-01T22:16:22.484Z,1023.32
2015-11-01T22:16:32.484Z,1023.33
2015-11-01T22:16:42.484Z,1023.31
2015-11-01T22:16:52.487Z,1023.32
2015-11-01T22:17:02.503Z,1023.33
2015-11-01T22:17:12.503Z,1023.28
2015-11-01T22:17:22.503Z,1023.29
2015-11-01T22:17:32.503Z,1023.32
2015-11-01T22:17:42.518Z,1023.3
2015-11-01T22:17:52.521Z,1023.31
2015-11-01T22:18:02.521Z,1023.28
2015-11-01T22:18:12.537Z,1023.31
2015-11-01T22:18:22.537Z,1023.28
2015-11-01T22:18:32.537Z,1023.28
2015-11-01T22:18:42.537Z,1023.24
2015-11-01T22:18:52.554Z,1023.27
2015-11-01T22:19:02.554Z,1023.29
2015-11-01T22:19:12.554Z,1023.28
2015-11-01T22:19:22.570Z,1023.26
2015-11-01T22:19:32.570Z,1023.27
2015-11-01T22:19:42.570Z,1023.3
2015-11-01T22:19:52.573Z,1023.26
2015-11-01T22:20:02.589Z,1023.27
2015-11-01T22:20:12.589Z,1023.28
2015-11-01T22:20:22.589Z,1023.29
2015-11-01T22:20:32.604Z,1023.31
2015-11-01T22:20:42.604Z,1023.32
2015-11-01T22:20:52.622Z,1023.32
2015-11-01T22:21:02.606Z,1023.32
2015-11-01T22:21:12.622Z,1023.32
2015-11-01T22:21:22.466Z,1023.34
2015-11-01T22:21:32.622Z,1023.32
2015-11-01T22:21:42.638Z,1023.31
2015-11-01T22:21:52.641Z,1023.34
2015-11-01T22:22:02.656Z,1023.33
2015-11-01T22:22:12.656Z,1023.34
2015-11-01T22:22:22.656Z,1023.35
2015-11-01T22:22:32.656Z,1023.36
2015-11-01T22:22:42.656Z,1023.33
2015-11-01T22:22:52.675Z,1023.36
2015-11-01T22:23:02.675Z,1023.33
2015-11-01T22:23:12.675Z,1023.35
2015-11-01T22:23:22.706Z,1023.34
2015-11-01T22:23:32.534Z,1023.36
2015-11-01T22:23:42.690Z,1023.35
2015-11-01T22:23:52.709Z,1023.37
2015-11-01T22:24:02.709Z,1023.36
2015-11-01T22:24:12.709Z,1023.38
2015-11-01T22:24:22.725Z,1023.35
2015-11-01T22:24:32.725Z,1023.35
2015-11-01T22:24:42.725Z,1023.37
2015-11-01T22:24:52.742Z,1023.34
2015-11-01T22:25:02.742Z,1023.35
2015-11-01T22:25:12.742Z,1023.36
2015-11-01T22:25:22.758Z,1023.37
2015-11-01T22:25:32.758Z,1023.34
2015-11-01T22:25:42.758Z,1023.3
2015-11-01T22:25:52.777Z,1023.35
2015-11-01T22:26:02.777Z,1023.32
2015-11-01T22:26:12.792Z,1023.31
2015-11-01T22:26:22.792Z,1023.31
2015-11-01T22:26:32.792Z,1023.31
2015-11-01T22:26:42.792Z,1023.34
2015-11-01T22:26:52.811Z,1023.32
2015-11-01T22:27:02.811Z,1023.31
2015-11-01T22:27:12.811Z,1023.33
2015-11-01T22:27:22.811Z,1023.32
2015-11-01T22:27:32.826Z,1023.34
2015-11-01T22:27:42.826Z,1023.28
2015-11-01T22:27:52.845Z,1023.3
2015-11-01T22:28:02.845Z,1023.31
2015-11-01T22:28:12.845Z,1023.31
2015-11-01T22:28:22.845Z,1023.31
2015-11-01T22:28:32.861Z,1023.26
2015-11-01T22:28:42.861Z,1023.29
2015-11-01T22:28:52.863Z,1023.27
2015-11-01T22:29:02.878Z,1023.25
2015-11-01T22:29:12.878Z,1023.3
2015-11-01T22:29:22.878Z,1023.28
2015-11-01T22:29:32.894Z,1023.27
2015-11-01T22:29:42.894Z,1023.23
2015-11-01T22:29:52.897Z,1023.24
2015-11-01T22:30:02.913Z,1023.23
2015-11-01T22:30:12.913Z,1023.28
2015-11-01T22:30:22.913Z,1023.23
2015-11-01T22:30:32.928Z,1023.22
2015-11-01T22:30:42.928Z,1023.23
2015-11-01T22:30:52.946Z,1023.29
2015-11-01T22:31:02.946Z,1023.23
2015-11-01T22:31:12.946Z,1023.24
2015-11-01T22:31:22.961Z,1023.24
2015-11-01T22:31:32.961Z,1023.2
2015-11-01T22:31:42.961Z,1023.23
2015-11-01T22:31:52.964Z,1023.22
2015-11-01T22:32:02.980Z,1023.21
2015-11-01T22:32:12.980Z,1023.2
2015-11-01T22:32:22.980Z,1023.21
2015-11-01T22:32:32.996Z,1023.16
2015-11-01T22:32:42.996Z,1023.19
2015-11-01T22:32:53.000Z,1023.21
2015-11-01T22:33:03.015Z,1023.19
2015-11-01T22:33:13.015Z,1023.17
2015-11-01T22:33:23.015Z,1023.17
2015-11-01T22:33:33.031Z,1023.2
2015-11-01T22:33:43.031Z,1023.19
2015-11-01T22:33:53.033Z,1023.18
2015-11-01T22:34:03.049Z,1023.16
2015-11-01T22:34:13.127Z,1023.17
2015-11-01T22:34:23.049Z,1023.14
2015-11-01T22:34:33.049Z,1023.17
2015-11-01T22:34:43.064Z,1023.15
2015-11-01T22:34:53.067Z,1023.15
2015-11-01T22:35:03.083Z,1023.11
2015-11-01T22:35:13.083Z,1023.15
2015-11-01T22:35:23.083Z,1023.1
2015-11-01T22:35:33.098Z,1023.13
2015-11-01T22:35:43.098Z,1023.1
2015-11-01T22:35:53.117Z,1023.09
2015-11-01T22:36:03.101Z,1023.14
2015-11-01T22:36:13.117Z,1023.09
2015-11-01T22:36:23.117Z,1023.06
2015-11-01T22:36:33.133Z,1023.09
2015-11-01T22:36:43.133Z,1023.09
2015-11-01T22:36:53.134Z,1023.1
2015-11-01T22:37:03.149Z,1023.06
2015-11-01T22:37:13.149Z,1023.1
2015-11-01T22:37:23.149Z,1023.12
2015-11-01T22:37:33.165Z,1023.08
2015-11-01T22:37:43.165Z,1023.09
2015-11-01T22:37:53.168Z,1023.08
2015-11-01T22:38:03.184Z,1023.09
2015-11-01T22:38:13.184Z,1023.1
2015-11-01T22:38:23.184Z,1023.11
2015-11-01T22:38:33.199Z,1023.09
2015-11-01T22:38:43.199Z,1023.11
2015-11-01T22:38:53.202Z,1023.11
2015-11-01T22:39:03.218Z,1023.11
2015-11-01T22:39:13.218Z,1023.08
2015-11-01T22:39:23.233Z,1023.07
2015-11-01T22:39:33.233Z,1023.09
2015-11-01T22:39:43.233Z,1023.1
2015-11-01T22:39:53.252Z,1023.08
2015-11-01T22:40:03.252Z,1023.1
2015-11-01T22:40:13.252Z,1023.09
2015-11-01T22:40:23.252Z,1023.1
2015-11-01T22:40:33.252Z,1023.12
2015-11-01T22:40:43.268Z,1023.08
2015-11-01T22:40:53.270Z,1023.1
2015-11-01T22:41:03.285Z,1023.09
2015-11-01T22:41:13.285Z,1023.06
2015-11-01T22:41:23.285Z,1023.1
2015-11-01T22:41:33.301Z,1023.09
2015-11-01T22:41:43.301Z,1023.1
2015-11-01T22:41:53.304Z,1023.08
2015-11-01T22:42:03.320Z,1023.06
2015-11-01T22:42:13.320Z,1023.1
2015-11-01T22:42:23.320Z,1023.09
2015-11-01T22:42:33.335Z,1023.08
2015-11-01T22:42:43.335Z,1023.1
2015-11-01T22:42:53.338Z,1023.1
2015-11-01T22:43:03.354Z,1023.1
2015-11-01T22:43:13.354Z,1023.09
2015-11-01T22:43:23.369Z,1023.11
2015-11-01T22:43:33.369Z,1023.07
2015-11-01T22:43:43.369Z,1023.07
2015-11-01T22:43:53.388Z,1023.09
2015-11-01T22:44:03.388Z,1023.06
2015-11-01T22:44:13.388Z,1023.09
2015-11-01T22:44:23.404Z,1023.11
2015-11-01T22:44:33.404Z,1023.06
2015-11-01T22:44:43.404Z,1023.08
2015-11-01T22:44:53.422Z,1023.09
2015-11-01T22:45:03.422Z,1023.06
2015-11-01T22:45:13.422Z,1023.06
2015-11-01T22:45:23.422Z,1023.09
2015-11-01T22:45:33.438Z,1023.05
2015-11-01T22:45:43.438Z,1023.05
2015-11-01T22:45:53.659Z,1023.07
2015-11-01T22:46:03.456Z,1023.03
2015-11-01T22:46:13.456Z,1023.05
2015-11-01T22:46:23.456Z,1023.04
2015-11-01T22:46:33.471Z,1023.06
2015-11-01T22:46:43.487Z,1023.04
2015-11-01T22:46:53.490Z,1023.04
2015-11-01T22:47:03.490Z,1023.03
2015-11-01T22:47:13.490Z,1023.04
2015-11-01T22:47:23.505Z,1023.05
2015-11-01T22:47:33.505Z,1023.06
2015-11-01T22:47:43.505Z,1023.05
2015-11-01T22:47:53.524Z,1023.03
2015-11-01T22:48:03.524Z,1023.04
2015-11-01T22:48:13.524Z,1023.06
2015-11-01T22:48:23.540Z,1023.04
2015-11-01T22:48:33.540Z,1023.01
2015-11-01T22:48:43.540Z,1023.04
2015-11-01T22:48:53.557Z,1023
2015-11-01T22:49:03.557Z,1022.98
2015-11-01T22:49:13.557Z,1022.99
2015-11-01T22:49:23.557Z,1023
2015-11-01T22:49:33.573Z,1022.99
2015-11-01T22:49:43.573Z,1022.99
2015-11-01T22:49:53.576Z,1023
2015-11-01T22:50:03.592Z,1022.98
2015-11-01T22:50:13.592Z,1022.98
2015-11-01T22:50:23.592Z,1022.98
2015-11-01T22:50:33.607Z,1022.99
2015-11-01T22:50:43.607Z,1022.99
2015-11-01T22:50:53.626Z,1022.99
2015-11-01T22:51:03.626Z,1022.98
2015-11-01T22:51:13.626Z,1022.99
2015-11-01T22:51:23.641Z,1023
2015-11-01T22:51:33.641Z,1022.99
2015-11-01T22:51:43.641Z,1022.98
2015-11-01T22:51:53.660Z,1022.98
2015-11-01T22:52:03.660Z,1022.99
2015-11-01T22:52:13.660Z,1023.02
2015-11-01T22:52:23.676Z,1022.99
2015-11-01T22:52:33.676Z,1022.98
2015-11-01T22:52:43.676Z,1022.99
2015-11-01T22:52:53.693Z,1022.99
2015-11-01T22:53:03.693Z,1022.96
2015-11-01T22:53:13.693Z,1022.98
2015-11-01T22:53:23.709Z,1023
2015-11-01T22:53:33.709Z,1023.02
2015-11-01T22:53:43.709Z,1023
2015-11-01T22:53:53.727Z,1023
2015-11-01T22:54:03.727Z,1022.97
2015-11-01T22:54:13.727Z,1022.97
2015-11-01T22:54:23.742Z,1022.98
2015-11-01T22:54:33.742Z,1023
2015-11-01T22:54:43.742Z,1023.01
2015-11-01T22:54:53.761Z,1022.97
2015-11-01T22:55:03.761Z,1022.99
2015-11-01T22:55:13.870Z,1022.97
2015-11-01T22:55:23.776Z,1023.03
2015-11-01T22:55:33.776Z,1023.07
2015-11-01T22:55:43.792Z,1023.03
2015-11-01T22:55:53.795Z,1023.06
2015-11-01T22:56:03.811Z,1023.05
2015-11-01T22:56:13.795Z,1023.03
2015-11-01T22:56:23.811Z,1023.06
2015-11-01T22:56:33.811Z,1023.05
2015-11-01T22:56:43.811Z,1023.04
2015-11-01T22:56:53.829Z,1023.03
2015-11-01T22:57:03.829Z,1023.03
2015-11-01T22:57:13.845Z,1023.05
2015-11-01T22:57:23.845Z,1023.03
2015-11-01T22:57:33.845Z,1023.07
2015-11-01T22:57:43.861Z,1023.05
2015-11-01T22:57:53.863Z,1023.01
2015-11-01T22:58:03.878Z,1023.08
2015-11-01T22:58:13.863Z,1023.08
2015-11-01T22:58:23.878Z,1023.07
2015-11-01T22:58:33.878Z,1023.07
2015-11-01T22:58:43.878Z,1023.05
2015-11-01T22:58:53.897Z,1023.05
2015-11-01T22:59:03.897Z,1023.07
2015-11-01T22:59:13.897Z,1023.07
2015-11-01T22:59:23.912Z,1023.07
2015-11-01T22:59:33.928Z,1023.05
2015-11-01T22:59:43.912Z,1023.03
2015-11-01T22:59:53.931Z,1023.05
2015-11-01T23:00:03.931Z,1023.06
2015-11-01T23:00:13.947Z,1023.07
2015-11-01T23:00:23.962Z,1023.05
2015-11-01T23:00:33.947Z,1023.09
2015-11-01T23:00:43.962Z,1023.03
2015-11-01T23:00:53.964Z,1023.06
2015-11-01T23:01:03.964Z,1023.03
2015-11-01T23:01:13.980Z,1023.05
2015-11-01T23:01:23.980Z,1023.05
2015-11-01T23:01:33.980Z,1023.04
2015-11-01T23:01:43.980Z,1023.03
2015-11-01T23:01:53.999Z,1023.08
2015-11-01T23:02:03.999Z,1023
2015-11-01T23:02:14.014Z,1023.02
2015-11-01T23:02:24.014Z,1023.06
2015-11-01T23:02:34.014Z,1023.03
2015-11-01T23:02:44.014Z,1023.02
2015-11-01T23:02:54.048Z,1023.03
2015-11-01T23:03:04.033Z,1023.01
2015-11-01T23:03:14.033Z,1022.99
2015-11-01T23:03:24.048Z,1022.99
2015-11-01T23:03:34.048Z,1022.96
2015-11-01T23:03:44.064Z,1022.96
2015-11-01T23:03:54.066Z,1022.96
2015-11-01T23:04:04.066Z,1022.97
2015-11-01T23:04:14.082Z,1022.97
2015-11-01T23:04:24.082Z,1022.97
2015-11-01T23:04:34.082Z,1022.97
2015-11-01T23:04:44.097Z,1022.96
2015-11-01T23:04:54.100Z,1022.99
2015-11-01T23:05:04.100Z,1022.98
2015-11-01T23:05:14.116Z,1022.98
2015-11-01T23:05:24.116Z,1022.96
2015-11-01T23:05:34.132Z,1022.96
2015-11-01T23:05:44.116Z,1022.97
2015-11-01T23:05:54.135Z,1022.96
2015-11-01T23:06:04.135Z,1022.96
2015-11-01T23:06:14.150Z,1022.97
2015-11-01T23:06:24.150Z,1022.95
2015-11-01T23:06:34.150Z,1022.97
2015-11-01T23:06:44.166Z,1022.96
2015-11-01T23:06:54.168Z,1022.97
2015-11-01T23:07:04.168Z,1022.95
2015-11-01T23:07:14.183Z,1022.96
2015-11-01T23:07:24.183Z,1022.99
2015-11-01T23:07:34.183Z,1022.97
2015-11-01T23:07:44.199Z,1022.95
2015-11-01T23:07:54.202Z,1022.96
2015-11-01T23:08:04.202Z,1022.99
2015-11-01T23:08:14.218Z,1022.98
2015-11-01T23:08:24.218Z,1022.95
2015-11-01T23:08:34.233Z,1022.96
2015-11-01T23:08:44.233Z,1022.96
2015-11-01T23:08:54.236Z,1022.95
2015-11-01T23:09:04.236Z,1022.93
2015-11-01T23:09:14.252Z,1022.94
2015-11-01T23:09:24.252Z,1022.97
2015-11-01T23:09:34.252Z,1022.94
2015-11-01T23:09:44.268Z,1022.98
2015-11-01T23:09:54.270Z,1022.97
2015-11-01T23:10:04.270Z,1022.95
2015-11-01T23:10:14.285Z,1022.95
2015-11-01T23:10:24.285Z,1022.95
2015-11-01T23:10:34.301Z,1022.99
2015-11-01T23:10:44.301Z,1022.96
2015-11-01T23:10:54.304Z,1022.97
2015-11-01T23:11:04.304Z,1022.97
2015-11-01T23:11:14.319Z,1022.96
2015-11-01T23:11:24.319Z,1022.96
2015-11-01T23:11:34.319Z,1022.98
2015-11-01T23:11:44.335Z,1022.99
2015-11-01T23:11:54.338Z,1022.96
2015-11-01T23:12:04.354Z,1022.96
2015-11-01T23:12:14.354Z,1022.98
2015-11-01T23:12:24.354Z,1022.96
2015-11-01T23:12:34.369Z,1022.96
2015-11-01T23:12:44.369Z,1022.98
2015-11-01T23:12:54.372Z,1022.99
2015-11-01T23:13:04.388Z,1022.98
2015-11-01T23:13:14.388Z,1022.98
2015-11-01T23:13:24.388Z,1022.97
2015-11-01T23:13:34.404Z,1023
2015-11-01T23:13:44.404Z,1022.97
2015-11-01T23:13:54.422Z,1022.97
2015-11-01T23:14:04.422Z,1022.99
2015-11-01T23:14:14.422Z,1022.99
2015-11-01T23:14:24.422Z,1022.97
2015-11-01T23:14:34.438Z,1022.97
2015-11-01T23:14:44.438Z,1023.01
2015-11-01T23:14:54.440Z,1023
2015-11-01T23:15:04.440Z,1023.01
2015-11-01T23:15:14.455Z,1023.02
2015-11-01T23:15:24.455Z,1022.99
2015-11-01T23:15:34.471Z,1023.02
2015-11-01T23:15:44.471Z,1022.99
2015-11-01T23:15:54.474Z,1023
2015-11-01T23:16:04.490Z,1023.02
2015-11-01T23:16:14.490Z,1023.06
2015-11-01T23:16:24.490Z,1022.98
2015-11-01T23:16:34.505Z,1023.02
2015-11-01T23:16:44.505Z,1023
2015-11-01T23:16:54.524Z,1023
2015-11-01T23:17:04.524Z,1023.03
2015-11-01T23:17:14.524Z,1023.02
2015-11-01T23:17:24.524Z,1023.02
2015-11-01T23:17:34.540Z,1023.01
2015-11-01T23:17:44.540Z,1023.04
2015-11-01T23:17:54.543Z,1023.02
2015-11-01T23:18:04.558Z,1023.04
2015-11-01T23:18:14.558Z,1023.02
2015-11-01T23:18:24.574Z,1022.99
2015-11-01T23:18:34.574Z,1023
2015-11-01T23:18:44.574Z,1023.01
2015-11-01T23:18:54.591Z,1022.98
2015-11-01T23:19:04.591Z,1022.99
2015-11-01T23:19:14.591Z,1023
2015-11-01T23:19:24.607Z,1022.98
2015-11-01T23:19:34.607Z,1023
2015-11-01T23:19:44.607Z,1022.95
2015-11-01T23:19:54.625Z,1023.06
2015-11-01T23:20:04.625Z,1023.03
2015-11-01T23:20:14.625Z,1023.03
2015-11-01T23:20:24.625Z,1023.04
2015-11-01T23:20:34.640Z,1023.03
2015-11-01T23:20:44.656Z,1023.04
2015-11-01T23:20:54.690Z,1023.08
2015-11-01T23:21:04.675Z,1023.03
2015-11-01T23:21:14.659Z,1023.03
2015-11-01T23:21:24.675Z,1023.05
2015-11-01T23:21:34.675Z,1023
2015-11-01T23:21:44.675Z,1023.03
2015-11-01T23:21:54.678Z,1023.03
2015-11-01T23:22:04.693Z,1023.04
2015-11-01T23:22:14.693Z,1023.03
2015-11-01T23:22:24.709Z,1023.02
2015-11-01T23:22:34.709Z,1023.04
2015-11-01T23:22:44.709Z,1023
2015-11-01T23:22:54.726Z,1023.01
2015-11-01T23:23:04.726Z,1023.02
2015-11-01T23:23:14.726Z,1023.01
2015-11-01T23:23:24.742Z,1023.01
2015-11-01T23:23:34.742Z,1023.02
2015-11-01T23:23:44.758Z,1022.99
2015-11-01T23:23:54.761Z,1023
2015-11-01T23:24:04.761Z,1022.99
2015-11-01T23:24:14.761Z,1023
2015-11-01T23:24:24.761Z,1023.02
2015-11-01T23:24:34.776Z,1023.02
2015-11-01T23:24:44.776Z,1022.99
2015-11-01T23:24:54.795Z,1023
2015-11-01T23:25:04.795Z,1023.01
2015-11-01T23:25:14.795Z,1023.04
2015-11-01T23:25:24.795Z,1023.01
2015-11-01T23:25:34.811Z,1023.01
2015-11-01T23:25:44.811Z,1023.01
2015-11-01T23:25:54.829Z,1022.96
2015-11-01T23:26:04.829Z,1023
2015-11-01T23:26:14.829Z,1022.99
2015-11-01T23:26:24.845Z,1022.99
2015-11-01T23:26:34.845Z,1023.01
2015-11-01T23:26:44.845Z,1023.01
2015-11-01T23:26:54.863Z,1023
2015-11-01T23:27:04.863Z,1022.99
2015-11-01T23:27:14.863Z,1022.98
2015-11-01T23:27:24.879Z,1022.99
2015-11-01T23:27:34.879Z,1022.99
2015-11-01T23:27:44.879Z,1023.03
2015-11-01T23:27:54.897Z,1023.01
2015-11-01T23:28:04.897Z,1023.01
2015-11-01T23:28:14.912Z,1023
2015-11-01T23:28:24.912Z,1023.02
2015-11-01T23:28:34.912Z,1023.01
2015-11-01T23:28:44.928Z,1023
2015-11-01T23:28:54.931Z,1023
2015-11-01T23:29:04.931Z,1023
2015-11-01T23:29:14.931Z,1023.02
2015-11-01T23:29:24.947Z,1022.97
2015-11-01T23:29:34.947Z,1023.02
2015-11-01T23:29:44.947Z,1022.99
2015-11-01T23:29:54.965Z,1023.02
2015-11-01T23:30:04.965Z,1023.01
2015-11-01T23:30:14.825Z,1022.98
2015-11-01T23:30:24.981Z,1023.01
2015-11-01T23:30:34.981Z,1022.95
2015-11-01T23:30:44.996Z,1022.96
2015-11-01T23:30:54.998Z,1022.96
2015-11-01T23:31:05.014Z,1022.93
2015-11-01T23:31:15.014Z,1022.96
2015-11-01T23:31:25.014Z,1022.95
2015-11-01T23:31:35.014Z,1022.93
2015-11-01T23:31:45.030Z,1022.91
2015-11-01T23:31:55.048Z,1022.93
2015-11-01T23:32:05.033Z,1022.96
2015-11-01T23:32:15.048Z,1022.95
2015-11-01T23:32:25.048Z,1022.94
2015-11-01T23:32:35.064Z,1022.92
2015-11-01T23:32:45.064Z,1022.91
2015-11-01T23:32:55.067Z,1022.93
2015-11-01T23:33:05.067Z,1022.95
2015-11-01T23:33:15.083Z,1022.93
2015-11-01T23:33:25.083Z,1022.93
2015-11-01T23:33:35.098Z,1022.89
2015-11-01T23:33:45.098Z,1022.95
2015-11-01T23:33:55.101Z,1022.92
2015-11-01T23:34:05.101Z,1022.92
2015-11-01T23:34:15.101Z,1022.98
2015-11-01T23:34:25.117Z,1022.94
2015-11-01T23:34:35.117Z,1022.92
2015-11-01T23:34:45.132Z,1022.9
2015-11-01T23:34:55.134Z,1022.91
2015-11-01T23:35:05.134Z,1022.93
2015-11-01T23:35:15.150Z,1022.92
2015-11-01T23:35:25.150Z,1022.92
2015-11-01T23:35:35.150Z,1022.95
2015-11-01T23:35:45.166Z,1022.93
2015-11-01T23:35:55.168Z,1022.94
2015-11-01T23:36:05.168Z,1022.93
2015-11-01T23:36:15.183Z,1022.94
2015-11-01T23:36:25.183Z,1022.93
2015-11-01T23:36:35.183Z,1022.92
2015-11-01T23:36:45.199Z,1022.92
2015-11-01T23:36:55.202Z,1022.94
2015-11-01T23:37:05.218Z,1022.95
2015-11-01T23:37:15.218Z,1022.94
2015-11-01T23:37:25.218Z,1022.94
2015-11-01T23:37:35.233Z,1022.92
2015-11-01T23:37:45.233Z,1022.97
2015-11-01T23:37:55.236Z,1022.94
2015-11-01T23:38:05.252Z,1022.95
2015-11-01T23:38:15.252Z,1022.97
2015-11-01T23:38:25.252Z,1022.98
2015-11-01T23:38:35.267Z,1022.94
2015-11-01T23:38:45.267Z,1022.97
2015-11-01T23:38:55.270Z,1022.94
2015-11-01T23:39:05.270Z,1022.96
2015-11-01T23:39:15.286Z,1022.95
2015-11-01T23:39:25.286Z,1022.94
2015-11-01T23:39:35.302Z,1022.93
2015-11-01T23:39:45.302Z,1022.93
2015-11-01T23:39:55.304Z,1022.96
2015-11-01T23:40:05.319Z,1022.97
2015-11-01T23:40:15.319Z,1022.93
2015-11-01T23:40:25.319Z,1022.96
2015-11-01T23:40:35.335Z,1022.95
2015-11-01T23:40:45.335Z,1022.94
2015-11-01T23:40:55.338Z,1022.91
2015-11-01T23:41:05.354Z,1022.95
2015-11-01T23:41:15.354Z,1022.92
2015-11-01T23:41:25.354Z,1022.95
2015-11-01T23:41:35.369Z,1022.95
2015-11-01T23:41:45.369Z,1022.92
2015-11-01T23:41:55.232Z,1022.94
2015-11-01T23:42:05.388Z,1022.93
2015-11-01T23:42:15.388Z,1022.94
2015-11-01T23:42:25.388Z,1022.93
2015-11-01T23:42:35.403Z,1022.94
2015-11-01T23:42:45.403Z,1022.94
2015-11-01T23:42:55.406Z,1022.92
2015-11-01T23:43:05.422Z,1022.91
2015-11-01T23:43:15.422Z,1022.92
2015-11-01T23:43:25.422Z,1022.92
2015-11-01T23:43:35.438Z,1022.9
2015-11-01T23:43:45.438Z,1022.89
2015-11-01T23:43:55.455Z,1022.9
2015-11-01T23:44:05.455Z,1022.87
2015-11-01T23:44:15.455Z,1022.89
2015-11-01T23:44:25.471Z,1022.88
2015-11-01T23:44:35.471Z,1022.88
2015-11-01T23:44:45.471Z,1022.87
2015-11-01T23:44:55.474Z,1022.88
2015-11-01T23:45:05.490Z,1022.93
2015-11-01T23:45:15.490Z,1022.95
2015-11-01T23:45:25.490Z,1022.94
2015-11-01T23:45:35.505Z,1022.94
2015-11-01T23:45:45.505Z,1022.91
2015-11-01T23:45:55.508Z,1022.92
2015-11-01T23:46:05.524Z,1022.94
2015-11-01T23:46:15.524Z,1022.94
2015-11-01T23:46:25.524Z,1022.95
2015-11-01T23:46:35.539Z,1022.93
2015-11-01T23:46:45.539Z,1022.94
2015-11-01T23:46:55.538Z,1022.94
2015-11-01T23:47:05.554Z,1022.92
2015-11-01T23:47:15.554Z,1022.91
2015-11-01T23:47:25.570Z,1022.93
2015-11-01T23:47:35.570Z,1022.95
2015-11-01T23:47:45.570Z,1022.94
2015-11-01T23:47:55.561Z,1022.95
2015-11-01T23:48:05.576Z,1022.96
2015-11-01T23:48:15.576Z,1022.95
2015-11-01T23:48:25.576Z,1022.94
2015-11-01T23:48:35.592Z,1022.93
2015-11-01T23:48:45.592Z,1022.96
2015-11-01T23:48:55.600Z,1022.93
2015-11-01T23:49:05.600Z,1022.93
2015-11-01T23:49:15.600Z,1022.93
2015-11-01T23:49:25.615Z,1022.95
2015-11-01T23:49:35.615Z,1022.93
2015-11-01T23:49:45.615Z,1022.95
2015-11-01T23:49:55.623Z,1022.95
2015-11-01T23:50:05.623Z,1022.95
2015-11-01T23:50:15.623Z,1022.92
2015-11-01T23:50:25.638Z,1022.92
2015-11-01T23:50:35.638Z,1022.94
2015-11-01T23:50:45.654Z,1022.9
2015-11-01T23:50:55.645Z,1022.91
2015-11-01T23:51:05.645Z,1022.94
2015-11-01T23:51:15.645Z,1022.93
2015-11-01T23:51:25.661Z,1022.92
2015-11-01T23:51:35.661Z,1022.94
2015-11-01T23:51:45.661Z,1022.91
2015-11-01T23:51:55.669Z,1022.91
2015-11-01T23:52:05.669Z,1022.9
2015-11-01T23:52:15.669Z,1022.92
2015-11-01T23:52:25.685Z,1022.89
2015-11-01T23:52:35.685Z,1022.89
2015-11-01T23:52:45.685Z,1022.91
2015-11-01T23:52:55.700Z,1022.9
2015-11-01T23:53:05.700Z,1022.91
2015-11-01T23:53:15.715Z,1022.9
2015-11-01T23:53:25.715Z,1022.89
2015-11-01T23:53:35.715Z,1022.93
2015-11-01T23:53:45.715Z,1022.89
2015-11-01T23:53:55.731Z,1022.9
2015-11-01T23:54:05.731Z,1022.89
2015-11-01T23:54:15.731Z,1022.9
2015-11-01T23:54:25.746Z,1022.91
2015-11-01T23:54:35.746Z,1022.91
2015-11-01T23:54:45.746Z,1022.87
2015-11-01T23:54:55.761Z,1022.9
2015-11-01T23:55:05.761Z,1022.9
2015-11-01T23:55:15.620Z,1022.89
2015-11-01T23:55:25.777Z,1022.9
2015-11-01T23:55:35.777Z,1022.86
2015-11-01T23:55:45.777Z,1022.86
2015-11-01T23:55:55.790Z,1022.9
2015-11-01T23:56:05.790Z,1022.9
2015-11-01T23:56:15.806Z,1022.91
2015-11-01T23:56:25.806Z,1022.9
2015-11-01T23:56:35.806Z,1022.93
2015-11-01T23:56:45.822Z,1022.9
2015-11-01T23:56:55.822Z,1022.91
2015-11-01T23:57:05.822Z,1022.88
2015-11-01T23:57:15.822Z,1022.89
2015-11-01T23:57:25.837Z,1022.9
2015-11-01T23:57:35.837Z,1022.91
2015-11-01T23:57:45.853Z,1022.87
2015-11-01T23:57:55.854Z,1022.89
2015-11-01T23:58:05.869Z,1022.92
2015-11-01T23:58:15.713Z,1022.88
2015-11-01T23:58:25.869Z,1022.89
2015-11-01T23:58:35.869Z,1022.91
2015-11-01T23:58:45.885Z,1022.89
2015-11-01T23:58:55.886Z,1022.9
2015-11-01T23:59:05.886Z,1022.89
2015-11-01T23:59:15.886Z,1022.91
2015-11-01T23:59:25.902Z,1022.88
2015-11-01T23:59:35.902Z,1022.92
2015-11-01T23:59:45.902Z,1022.89
2015-11-01T23:59:55.918Z,1022.92
